TAF KSLK
KSLK 090526Z 0906/1006 VRB03KT 5SM -SHSN BR OVC022 FM091200 29006KT P6SM OVC025 FM091600 28007KT P6SM BKN025 FM092000 VRB04KT P6SM BKN060 FM100500 VRB04KT P6SM VCSH OVC060=
METAR KSLK
WC KSLK
WS KSLK
WV KSLK